Time;durP1;ratioP1;P1;durP2;ratioP2;P2;SDS_P1;SDS_P2;PMS_P1;PMS_P2;Temp;Humidity;BMP_temperature;BMP_pressure;BME280_temperature;BME280_humidity;BME280_pressure;Samples;Min_cycle;Max_cycle;Signal;HPM_P1;HPM_P2
2021/05/29 00:00:10;;;;;;;30.50;20.33;;;;;;;17.18;77.96;99103.84;5068655;28;20394;-62
2021/05/29 00:02:37;;;;;;;45.13;24.13;;;;;;;17.17;77.74;99099.50;5052954;28;20044;-63
2021/05/29 00:05:04;;;;;;;43.17;20.35;;;;;;;17.17;77.91;99102.16;5068418;28;20044;-65
2021/05/29 00:07:32;;;;;;;42.65;25.55;;;;;;;17.11;77.62;99103.38;5069679;28;20048;-64
2021/05/29 00:09:59;;;;;;;46.15;26.10;;;;;;;17.00;77.74;99097.84;5053129;28;20045;-64
2021/05/29 00:12:25;;;;;;;55.85;26.45;;;;;;;16.98;78.05;99102.38;5068892;28;20501;-64
2021/05/29 00:14:50;;;;;;;42.35;26.13;;;;;;;16.97;78.33;99100.69;5070414;28;20063;-64
2021/05/29 00:17:18;;;;;;;42.05;24.73;;;;;;;16.89;78.29;99098.50;5068558;28;20075;-64
2021/05/29 00:19:44;;;;;;;40.80;24.77;;;;;;;16.72;78.57;99088.13;5069032;28;20517;-63
2021/05/29 00:22:10;;;;;;;40.10;26.05;;;;;;;16.60;78.84;99075.59;5037187;28;20043;-64
2021/05/29 00:24:36;;;;;;;43.20;26.40;;;;;;;16.71;79.04;99092.53;5071115;28;20052;-63
2021/05/29 00:27:02;;;;;;;44.83;25.42;;;;;;;16.61;79.67;99082.59;5071037;28;20536;-63
2021/05/29 00:29:27;;;;;;;38.28;25.13;;;;;;;16.59;80.12;99085.31;5036648;28;20071;-63
2021/05/29 00:31:53;;;;;;;46.92;24.80;;;;;;;16.66;80.29;99091.97;5069514;28;20045;-64
2021/05/29 00:34:19;;;;;;;35.72;23.70;;;;;;;16.60;79.84;99087.03;5068848;28;20087;-64
2021/05/29 00:36:44;;;;;;;47.60;23.23;;;;;;;16.62;79.49;99094.84;5070234;28;20048;-64
2021/05/29 00:39:10;;;;;;;44.97;25.55;;;;;;;16.53;79.11;99080.41;5052399;28;20052;-63
2021/05/29 00:41:36;;;;;;;38.17;24.38;;;;;;;16.55;79.90;99091.72;5070804;28;20037;-63
2021/05/29 00:44:03;;;;;;;46.63;25.75;;;;;;;16.53;78.78;99089.16;5069840;28;20048;-64
2021/05/29 00:46:29;;;;;;;45.50;24.10;;;;;;;16.45;79.94;99077.38;5034295;28;20075;-64
2021/05/29 00:48:54;;;;;;;39.90;24.45;;;;;;;16.46;80.21;99093.13;5068438;28;20516;-64
2021/05/29 00:51:21;;;;;;;41.35;22.63;;;;;;;16.47;80.41;99096.59;5070424;28;20053;-64
2021/05/29 00:53:47;;;;;;;41.05;22.60;;;;;;;16.40;81.14;99076.78;5069564;28;20033;-63
2021/05/29 00:56:13;;;;;;;48.53;23.70;;;;;;;16.44;80.78;99076.50;5068229;28;20186;-64
2021/05/29 00:58:39;;;;;;;50.92;23.48;;;;;;;16.61;79.53;99093.16;5067503;28;20321;-63
2021/05/29 01:01:04;;;;;;;36.15;23.55;;;;;;;16.58;79.19;99078.34;5068029;28;20048;-63
2021/05/29 01:03:35;;;;;;;45.92;24.00;;;;;;;16.59;79.21;99080.03;5068871;28;20045;-64
2021/05/29 01:06:01;;;;;;;42.85;23.85;;;;;;;16.66;78.98;99085.84;5069233;28;20044;-63
2021/05/29 01:08:26;;;;;;;39.30;22.42;;;;;;;16.58;79.25;99070.41;5068040;28;20619;-63
2021/05/29 01:10:53;;;;;;;38.80;22.48;;;;;;;16.60;79.08;99075.59;5070579;28;20036;-63
2021/05/29 01:13:22;;;;;;;34.30;20.17;;;;;;;16.55;79.43;99067.97;5069154;28;20044;-64
2021/05/29 01:15:49;;;;;;;41.72;23.35;;;;;;;16.65;79.40;99089.38;5051145;28;20132;-64
2021/05/29 01:18:17;;;;;;;44.33;21.58;;;;;;;16.70;78.98;99090.84;5052591;28;20056;-64
2021/05/29 01:20:47;;;;;;;42.47;22.80;;;;;;;16.77;78.45;99092.19;5069550;28;20047;-63
2021/05/29 01:23:14;;;;;;;32.95;20.80;;;;;;;16.78;78.56;99085.94;5051942;28;20411;-62
2021/05/29 01:25:46;;;;;;;48.72;21.75;;;;;;;16.68;78.42;99068.97;5068600;28;20051;-63
2021/05/29 01:28:16;;;;;;;;;;;;;;;16.82;78.18;99089.25;5072084;28;20048;-63
2021/05/29 01:30:51;;;;;;;39.25;20.38;;;;;;;16.81;78.17;99083.13;5072415;28;20399;-62
2021/05/29 01:33:27;;;;;;;38.65;20.98;;;;;;;16.81;77.78;99075.19;5073263;28;20048;-62
2021/05/29 01:35:59;;;;;;;36.25;21.48;;;;;;;16.80;77.88;99068.22;5056372;28;20040;-62
2021/05/29 01:38:25;;;;;;;42.75;22.08;;;;;;;16.75;78.42;99062.38;5073285;28;20045;-62
2021/05/29 01:40:52;;;;;;;44.88;22.08;;;;;;;16.80;78.14;99056.81;5071501;28;20048;-65
2021/05/29 01:43:18;;;;;;;39.05;21.15;;;;;;;16.84;78.26;99056.53;5074595;28;20036;-63
2021/05/29 01:45:44;;;;;;;40.38;21.55;;;;;;;16.89;77.88;99053.59;5074621;28;20389;-62
2021/05/29 01:48:10;;;;;;;45.78;21.00;;;;;;;16.92;78.12;99053.41;5073362;28;20045;-66
2021/05/29 01:50:53;;;;;;;41.17;20.70;;;;;;;16.87;77.74;99028.22;5073679;28;20210;-62
2021/05/29 01:53:22;;;;;;;38.35;20.85;;;;;;;17.05;77.62;99049.06;5073654;28;20378;-63
2021/05/29 01:55:48;;;;;;;41.47;19.45;;;;;;;17.16;76.63;99056.38;5071110;28;20045;-62
2021/05/29 01:58:15;;;;;;;42.05;19.05;;;;;;;17.20;76.47;99047.31;5073744;28;20047;-64
2021/05/29 02:00:40;;;;;;;34.30;18.85;;;;;;;17.25;76.28;99047.03;5072011;28;20097;-65
2021/05/29 02:03:06;;;;;;;29.25;18.27;;;;;;;17.30;75.68;99053.72;5073898;28;20052;-62
2021/05/29 02:05:34;;;;;;;36.88;19.00;;;;;;;17.28;75.74;99041.53;5072256;28;20040;-62
2021/05/29 02:08:02;;;;;;;33.55;18.83;;;;;;;17.31;75.88;99044.84;5054807;28;20140;-62
2021/05/29 02:10:30;;;;;;;29.67;18.17;;;;;;;17.36;76.29;99055.97;5071992;28;20051;-62
2021/05/29 02:12:58;;;;;;;30.08;17.63;;;;;;;17.41;75.46;99053.03;5037385;28;20044;-62
2021/05/29 02:15:35;;;;;;;30.10;19.13;;;;;;;17.41;75.49;99064.47;5055490;28;20429;-62
2021/05/29 02:18:05;;;;;;;39.60;19.13;;;;;;;17.33;75.73;99042.94;5073741;28;20051;-63
2021/05/29 02:20:54;;;;;;;30.35;19.13;;;;;;;17.43;75.89;99053.78;5054565;28;20322;-62
2021/05/29 02:23:24;;;;;;;38.72;18.65;;;;;;;17.40;76.12;99057.47;5065692;28;20084;-62
2021/05/29 02:25:52;;;;;;;33.15;18.88;;;;;;;17.40;76.34;99060.13;5054684;28;20123;-63
2021/05/29 02:28:19;;;;;;;32.70;18.75;;;;;;;17.37;76.32;99049.75;5054954;28;20567;-64
2021/05/29 02:30:46;;;;;;;37.80;19.25;;;;;;;17.53;76.01;99056.69;5038256;28;20119;-64
2021/05/29 02:33:12;;;;;;;33.28;19.05;;;;;;;17.48;76.35;99039.34;5071385;28;20044;-63
2021/05/29 02:35:38;;;;;;;34.90;19.20;;;;;;;17.55;75.96;99041.59;5071832;28;20058;-62
2021/05/29 02:38:04;;;;;;;29.80;19.45;;;;;;;17.68;75.93;99046.03;5071092;28;20045;-64
2021/05/29 02:40:30;;;;;;;40.65;19.33;;;;;;;17.71;75.76;99045.81;5072619;28;20508;-64
2021/05/29 02:42:56;;;;;;;29.80;18.60;;;;;;;17.82;75.85;99045.13;5070670;28;20052;-64
2021/05/29 02:45:22;;;;;;;37.20;19.15;;;;;;;17.83;75.01;99030.94;5054388;28;20147;-64
2021/05/29 02:47:48;;;;;;;41.75;18.60;;;;;;;17.96;74.32;99039.81;5072304;28;20036;-63
2021/05/29 02:50:14;;;;;;;30.55;18.42;;;;;;;18.05;74.97;99038.34;5071543;28;20140;-63
2021/05/29 02:52:41;;;;;;;27.33;17.50;;;;;;;18.06;75.04;99040.91;5036185;28;20464;-62
2021/05/29 02:55:09;;;;;;;46.85;17.67;;;;;;;18.08;75.30;99038.16;5069766;28;20047;-63
2021/05/29 02:57:35;;;;;;;31.30;17.38;;;;;;;18.13;75.19;99036.06;5068686;28;20052;-62
2021/05/29 03:00:01;;;;;;;40.28;19.13;;;;;;;18.13;75.12;99036.06;5069891;28;20520;-62
2021/05/29 03:02:27;;;;;;;37.25;17.73;;;;;;;18.13;74.79;99038.69;5053900;28;20080;-68
2021/05/29 03:04:53;;;;;;;36.60;19.92;;;;;;;17.97;75.33;99025.63;5070933;28;20094;-63
2021/05/29 03:07:18;;;;;;;41.20;20.00;;;;;;;17.86;75.97;99022.00;5072644;28;20036;-64
2021/05/29 03:09:45;;;;;;;27.40;19.95;;;;;;;17.80;76.77;99020.56;5072580;28;20044;-64
2021/05/29 03:12:11;;;;;;;39.28;20.05;;;;;;;17.94;76.85;99036.41;5054257;28;20040;-63
2021/05/29 03:14:37;;;;;;;37.58;20.08;;;;;;;18.05;76.43;99031.25;5052879;28;20410;-64
2021/05/29 03:17:03;;;;;;;40.45;20.55;;;;;;;18.04;76.05;99021.63;5071524;28;20040;-63
2021/05/29 03:19:29;;;;;;;35.50;18.52;;;;;;;18.14;75.56;99031.59;5071760;28;20047;-63
2021/05/29 03:21:55;;;;;;;39.13;18.05;;;;;;;18.14;75.34;99021.88;5036663;28;20036;-63
2021/05/29 03:24:21;;;;;;;47.63;18.50;;;;;;;18.28;74.93;99023.59;5072146;28;20049;-64
2021/05/29 03:26:47;;;;;;;34.50;18.52;;;;;;;18.36;74.99;99011.53;5069764;28;20040;-64
2021/05/29 03:29:12;;;;;;;35.25;19.38;;;;;;;18.46;74.76;99019.69;5070486;28;20111;-65
2021/05/29 03:31:38;;;;;;;36.78;18.92;;;;;;;18.62;73.97;99023.06;5054991;28;20085;-63
2021/05/29 03:34:04;;;;;;;36.25;18.67;;;;;;;18.70;73.66;99017.22;5070851;28;20051;-62
2021/05/29 03:36:31;;;;;;;44.38;18.48;;;;;;;18.65;73.98;99022.84;5069148;28;20128;-64
2021/05/29 03:38:57;;;;;;;37.67;18.70;;;;;;;18.80;73.09;99012.13;5069154;28;20044;-65
2021/05/29 03:41:22;;;;;;;46.33;18.27;;;;;;;18.97;72.41;99009.16;5070489;28;20127;-64
2021/05/29 03:43:48;;;;;;;47.28;19.63;;;;;;;19.31;71.49;99027.00;5068711;28;20049;-65
2021/05/29 03:46:14;;;;;;;42.45;17.35;;;;;;;19.51;70.79;99016.78;5052833;28;20421;-65
2021/05/29 03:48:39;;;;;;;40.75;18.52;;;;;;;19.66;70.36;99018.38;5068841;28;20060;-65
2021/05/29 03:51:06;;;;;;;35.15;18.30;;;;;;;19.83;69.75;99015.31;5070225;28;20556;-65
2021/05/29 03:53:32;;;;;;;38.72;17.90;;;;;;;20.08;69.87;99013.53;5069394;28;20044;-63
2021/05/29 03:55:57;;;;;;;40.05;18.30;;;;;;;20.40;68.88;99017.28;5068671;28;20052;-64
2021/05/29 03:58:23;;;;;;;44.67;18.38;;;;;;;20.62;66.71;99014.66;5068604;28;20036;-65
2021/05/29 04:00:49;;;;;;;41.28;18.02;;;;;;;20.78;66.28;99006.34;5066525;28;20040;-64
2021/05/29 04:03:15;;;;;;;37.65;17.48;;;;;;;21.15;66.18;99019.44;5069004;28;20048;-64
2021/05/29 04:05:40;;;;;;;36.45;17.15;;;;;;;22.10;62.93;99013.50;5067938;28;20053;-62
2021/05/29 04:08:06;;;;;;;37.85;17.98;;;;;;;22.17;62.28;99013.84;5070109;28;20036;-62
2021/05/29 04:10:35;;;;;;;33.17;17.45;;;;;;;23.00;59.81;99008.50;5050452;28;20105;-64
2021/05/29 04:13:01;;;;;;;55.53;18.90;;;;;;;24.12;56.13;98999.41;5067251;28;20051;-64
2021/05/29 04:15:27;;;;;;;42.30;16.88;;;;;;;25.41;52.38;99010.41;5070658;28;20040;-63
2021/05/29 04:17:54;;;;;;;43.63;18.92;;;;;;;25.79;50.79;99012.03;5034983;28;20052;-65
2021/05/29 04:20:22;;;;;;;44.63;18.65;;;;;;;25.88;50.48;99011.13;5034187;28;20055;-65
2021/05/29 04:22:48;;;;;;;45.33;19.15;;;;;;;25.96;49.71;99010.38;5069102;28;20044;-66
2021/05/29 04:25:17;;;;;;;47.03;19.08;;;;;;;27.23;47.23;99006.34;5068063;28;20503;-65
2021/05/29 04:27:43;;;;;;;39.35;19.08;;;;;;;28.22;44.66;98997.56;5069552;28;20040;-64
2021/05/29 04:30:12;;;;;;;49.42;18.75;;;;;;;27.84;45.48;98991.81;5051574;28;20029;-65
2021/05/29 04:32:38;;;;;;;40.00;18.23;;;;;;;27.47;46.05;98990.31;5068450;28;20417;-64
2021/05/29 04:35:05;;;;;;;46.13;18.20;;;;;;;27.27;46.15;98988.06;5067242;28;20040;-65
2021/05/29 04:37:31;;;;;;;45.22;17.02;;;;;;;26.96;46.59;98979.69;5068983;28;20068;-63
2021/05/29 04:39:56;;;;;;;28.52;16.55;;;;;;;26.63;47.59;98984.81;5067041;28;20079;-65
2021/05/29 04:42:23;;;;;;;31.83;16.80;;;;;;;26.50;47.79;98984.41;5069630;28;20102;-63
2021/05/29 04:44:49;;;;;;;30.67;17.65;;;;;;;26.08;48.61;98979.69;5066094;28;20080;-65
2021/05/29 04:47:14;;;;;;;38.70;18.02;;;;;;;25.19;51.31;98982.19;5066655;28;20055;-65
2021/05/29 04:49:40;;;;;;;37.28;18.40;;;;;;;24.88;52.57;98980.75;5067749;28;20066;-65
2021/05/29 04:52:07;;;;;;;41.58;18.48;;;;;;;24.88;52.35;98973.56;5050426;28;20036;-64
2021/05/29 04:54:33;;;;;;;39.08;18.83;;;;;;;25.00;52.63;98972.41;5068211;28;20486;-64
2021/05/29 04:56:59;;;;;;;38.25;18.35;;;;;;;24.96;52.66;98972.81;5066939;28;20045;-64
2021/05/29 04:59:25;;;;;;;36.55;18.95;;;;;;;25.30;52.24;98970.47;5068541;28;20120;-63
2021/05/29 05:01:51;;;;;;;38.05;16.65;;;;;;;25.67;50.46;98957.00;5071146;28;20055;-63
2021/05/29 05:04:17;;;;;;;26.55;15.75;;;;;;;25.49;50.20;98962.31;5071290;28;20041;-66
2021/05/29 05:06:43;;;;;;;33.40;16.98;;;;;;;25.39;50.73;98969.56;5071183;28;20573;-64
2021/05/29 05:09:09;;;;;;;30.20;15.48;;;;;;;25.37;50.73;98968.03;5071693;28;20974;-63
2021/05/29 05:11:36;;;;;;;28.48;14.02;;;;;;;25.28;49.47;98975.13;5068298;28;20143;-65
2021/05/29 05:14:03;;;;;;;18.30;12.10;;;;;;;25.25;47.99;98965.53;5070217;28;20493;-64
2021/05/29 05:16:29;;;;;;;17.02;11.65;;;;;;;25.03;47.53;98961.41;5052969;28;20045;-65
2021/05/29 05:18:55;;;;;;;20.75;11.80;;;;;;;24.86;47.76;98970.19;5071082;28;20641;-69
2021/05/29 05:21:21;;;;;;;24.33;11.93;;;;;;;24.85;48.52;98963.16;5072678;28;20048;-62
2021/05/29 05:23:50;;;;;;;24.42;12.77;;;;;;;24.71;49.16;98959.13;5070046;28;20170;-63
2021/05/29 05:26:19;;;;;;;24.67;14.25;;;;;;;24.71;49.93;98952.91;5054566;28;20098;-64
2021/05/29 05:28:45;;;;;;;26.70;14.25;;;;;;;24.66;50.14;98953.38;5071204;28;20044;-63
2021/05/29 05:31:15;;;;;;;20.80;13.10;;;;;;;24.81;49.01;98947.53;5070055;28;20522;-64
2021/05/29 05:33:45;;;;;;;22.08;13.82;;;;;;;24.71;49.50;98952.91;5071140;28;20051;-64
2021/05/29 05:36:13;;;;;;;27.83;12.48;;;;;;;24.41;50.09;98945.94;5053743;28;20517;-64
2021/05/29 05:38:40;;;;;;;32.03;16.50;;;;;;;25.07;50.44;98956.59;5070489;28;20055;-64
2021/05/29 05:41:07;;;;;;;25.42;15.48;;;;;;;25.92;48.33;98956.22;5055069;28;20116;-63
2021/05/29 05:43:34;;;;;;;25.48;16.33;;;;;;;25.51;49.02;98960.31;5071551;28;20064;-65
2021/05/29 05:46:01;;;;;;;18.60;11.73;;;;;;;25.03;47.55;98956.06;5071547;28;20467;-64
2021/05/29 05:48:27;;;;;;;23.10;11.02;;;;;;;24.90;46.21;98952.00;5072358;28;20493;-63
2021/05/29 05:50:59;;;;;;;17.55;9.45;;;;;;;25.64;44.40;98952.75;5072868;28;20119;-64
2021/05/29 05:53:27;;;;;;;12.77;8.40;;;;;;;26.53;41.65;98947.38;5071087;28;20132;-66
2021/05/29 05:56:02;;;;;;;16.83;10.13;;;;;;;26.48;42.69;98943.47;5071556;28;20436;-64
2021/05/29 05:58:31;;;;;;;15.23;10.63;;;;;;;26.65;42.51;98950.63;5069857;28;20098;-64
2021/05/29 06:00:58;;;;;;;17.83;11.02;;;;;;;27.44;41.39;98939.63;5070498;28;20040;-66
2021/05/29 06:03:24;;;;;;;13.13;9.88;;;;;;;28.01;40.54;98952.34;5070262;28;20186;-65
2021/05/29 06:05:50;;;;;;;17.23;10.88;;;;;;;28.46;38.96;98959.94;5069912;28;20075;-64
2021/05/29 06:08:16;;;;;;;15.07;10.18;;;;;;;29.12;37.42;98945.34;5050726;28;20135;-64
2021/05/29 06:10:42;;;;;;;16.25;10.30;;;;;;;29.23;37.46;98942.25;5071351;28;20537;-64
2021/05/29 06:13:13;;;;;;;16.17;10.07;;;;;;;29.81;36.61;98946.34;5052456;28;20094;-63
2021/05/29 06:20:59;;;;;;;17.20;9.40;;;;;;;27.95;37.80;98913.53;5069944;28;20052;-65
2021/05/29 06:23:24;;;;;;;14.25;10.00;;;;;;;27.79;38.72;98925.13;5069358;28;20151;-63
2021/05/29 06:25:50;;;;;;;13.43;9.27;;;;;;;27.51;40.24;98931.75;5070702;28;20044;-66
2021/05/29 06:28:16;;;;;;;17.45;11.80;;;;;;;27.33;40.50;98923.81;5084933;28;20036;-66
2021/05/29 06:30:42;;;;;;;25.50;11.40;;;;;;;27.26;40.60;98940.72;5068279;28;20509;-64
2021/05/29 06:33:08;;;;;;;17.67;10.75;;;;;;;26.91;41.28;98938.06;5052350;28;20083;-65
2021/05/29 06:35:34;;;;;;;24.52;11.05;;;;;;;26.41;42.05;98923.66;5052775;28;20056;-65
2021/05/29 06:38:00;;;;;;;24.35;11.02;;;;;;;26.40;42.56;98940.75;5053653;28;20051;-67
2021/05/29 06:40:26;;;;;;;17.10;11.05;;;;;;;25.40;44.59;98925.72;5069555;28;20045;-64
2021/05/29 06:42:51;;;;;;;31.30;11.65;;;;;;;25.39;46.08;98934.75;5070021;28;20441;-64
2021/05/29 06:45:17;;;;;;;22.70;10.88;;;;;;;25.17;46.45;98940.50;5070018;28;20059;-65
2021/05/29 06:47:43;;;;;;;14.38;9.73;;;;;;;24.89;45.93;98937.78;5070397;28;20093;-65
2021/05/29 06:50:09;;;;;;;20.17;9.98;;;;;;;24.53;46.23;98935.97;5069639;28;20140;-65
2021/05/29 06:52:39;;;;;;;16.83;9.20;;;;;;;24.39;46.86;98924.69;5069576;28;20139;-67
2021/05/29 07:00:36;;;;;;;15.32;9.25;;;;;;;23.67;48.57;98927.81;5051532;28;20046;-67
2021/05/29 07:03:02;;;;;;;14.82;9.35;;;;;;;23.64;48.40;98930.75;5068940;28;20041;-64
2021/05/29 07:05:28;;;;;;;20.38;10.68;;;;;;;23.58;50.70;98923.31;5067206;28;20040;-64
2021/05/29 07:07:54;;;;;;;18.20;10.35;;;;;;;23.43;50.87;98922.00;5067382;28;20047;-63
2021/05/29 07:10:19;;;;;;;18.85;11.23;;;;;;;23.27;51.59;98909.19;5066924;28;20048;-64
2021/05/29 07:12:45;;;;;;;20.17;11.35;;;;;;;23.23;53.01;98920.28;5068234;28;20416;-64
2021/05/29 07:15:11;;;;;;;23.10;11.57;;;;;;;23.18;52.41;98914.53;5050597;28;20051;-65
2021/05/29 07:17:41;;;;;;;22.83;10.98;;;;;;;23.07;52.18;98908.31;5067200;28;20094;-66
2021/05/29 07:20:07;;;;;;;21.42;11.73;;;;;;;23.01;53.69;98902.66;5068381;28;20056;-65
2021/05/29 07:22:34;;;;;;;23.80;11.45;;;;;;;22.91;54.03;98921.28;5049746;28;20044;-65
2021/05/29 07:25:00;;;;;;;21.73;12.25;;;;;;;22.81;54.95;98915.09;5047896;28;20520;-66
2021/05/29 07:27:27;;;;;;;26.08;13.52;;;;;;;22.72;56.41;98921.19;5068051;28;20045;-66
2021/05/29 07:29:53;;;;;;;21.95;12.57;;;;;;;22.52;56.59;98928.25;5066765;28;20127;-63
2021/05/29 07:32:19;;;;;;;18.30;12.15;;;;;;;22.29;58.79;98927.53;5068243;28;20101;-65
2021/05/29 07:34:45;;;;;;;19.83;13.30;;;;;;;22.13;58.98;98929.81;5066808;28;20048;-65
2021/05/29 07:37:10;;;;;;;22.58;13.07;;;;;;;21.92;59.31;98916.47;5067204;28;20519;-65
2021/05/29 07:39:36;;;;;;;26.67;13.10;;;;;;;21.75;58.44;98911.72;5051643;28;20508;-65
2021/05/29 07:42:02;;;;;;;24.63;15.00;;;;;;;21.77;62.18;98926.59;5070266;28;20069;-66
2021/05/29 07:44:28;;;;;;;30.70;15.45;;;;;;;21.69;63.86;98928.19;5068559;28;20421;-64
2021/05/29 07:46:54;;;;;;;28.05;15.07;;;;;;;21.70;64.12;98930.72;5068580;28;20056;-65
2021/05/29 07:49:20;;;;;;;28.25;18.98;;;;;;;21.51;60.96;98911.91;5068478;28;20134;-64
2021/05/29 07:51:46;;;;;;;25.45;12.43;;;;;;;21.49;60.10;98932.47;5066465;28;20501;-65
2021/05/29 07:54:12;;;;;;;19.73;13.25;;;;;;;21.43;60.16;98922.34;5069250;28;20413;-67
2021/05/29 07:56:38;;;;;;;30.40;16.45;;;;;;;21.52;66.74;98935.72;5068814;28;20052;-67
2021/05/29 07:59:11;;;;;;;22.98;15.35;;;;;;;21.52;69.09;98932.22;5069683;28;20041;-66
2021/05/29 08:01:37;;;;;;;23.80;15.35;;;;;;;21.41;68.82;98925.13;5050793;28;20071;-65
2021/05/29 08:04:03;;;;;;;32.85;17.80;;;;;;;21.38;69.24;98929.84;5067465;28;20048;-65
2021/05/29 08:06:29;;;;;;;28.02;16.73;;;;;;;21.39;70.39;98920.91;5050053;28;20440;-67
2021/05/29 08:08:55;;;;;;;25.50;16.00;;;;;;;21.48;68.25;98925.47;5068478;28;20067;-65
2021/05/29 08:11:22;;;;;;;21.50;15.85;;;;;;;21.49;66.10;98928.00;5067724;28;20481;-64
2021/05/29 08:13:53;;;;;;;24.48;16.05;;;;;;;21.44;66.18;98921.34;5049580;28;20044;-64
2021/05/29 08:16:21;;;;;;;20.60;15.20;;;;;;;21.46;66.23;98917.59;5066660;28;20078;-68
2021/05/29 08:18:48;;;;;;;26.23;16.23;;;;;;;21.49;67.06;98906.72;5065686;28;20592;-64
2021/05/29 08:21:14;;;;;;;27.63;17.20;;;;;;;21.58;65.81;98910.47;5050586;28;20075;-66
2021/05/29 08:23:40;;;;;;;25.70;17.27;;;;;;;21.75;63.47;98907.22;5066082;28;20083;-64
2021/05/29 08:26:06;;;;;;;26.83;18.02;;;;;;;21.86;61.60;98917.81;5066876;28;20075;-66
2021/05/29 08:28:32;;;;;;;33.35;20.65;;;;;;;21.90;62.84;98910.44;5067857;28;20086;-66
2021/05/29 08:30:58;;;;;;;36.72;22.42;;;;;;;22.07;63.36;98915.19;5065500;28;20127;-66
2021/05/29 08:33:24;;;;;;;31.15;22.35;;;;;;;21.94;63.46;98905.69;5050463;28;20116;-66
2021/05/29 08:35:50;;;;;;;29.10;21.30;;;;;;;22.02;62.84;98921.88;5068757;28;20074;-70
2021/05/29 08:38:15;;;;;;;38.30;23.02;;;;;;;21.92;64.80;98927.13;5067616;28;20536;-70
2021/05/29 08:40:42;;;;;;;33.35;21.00;;;;;;;21.88;62.89;98923.03;5050588;28;20036;-64
2021/05/29 08:43:08;;;;;;;35.38;20.35;;;;;;;21.99;62.57;98924.78;5034537;28;20387;-65
2021/05/29 08:45:34;;;;;;;42.92;20.13;;;;;;;22.08;61.69;98918.72;5050699;28;20151;-66
2021/05/29 08:48:02;;;;;;;27.95;18.85;;;;;;;22.09;61.35;98928.38;5065763;28;20082;-64
2021/05/29 08:50:29;;;;;;;33.10;19.17;;;;;;;22.05;60.66;98929.63;5050646;28;20135;-70
2021/05/29 08:52:56;;;;;;;32.05;20.17;;;;;;;21.91;61.04;98914.78;5050468;28;20427;-76
2021/05/29 08:55:22;;;;;;;33.53;20.17;;;;;;;21.91;61.67;98912.13;5049569;28;20044;-67
2021/05/29 08:57:49;;;;;;;34.30;19.75;;;;;;;21.91;61.44;98911.28;5032921;28;20099;-67
2021/05/29 09:00:27;;;;;;;36.63;21.88;;;;;;;21.89;62.88;98912.25;5065882;28;20086;-64
2021/05/29 09:02:56;;;;;;;39.78;16.85;;;;;;;21.39;64.65;98910.25;5065194;28;20374;-66
2021/05/29 09:05:33;;;;;;;16.17;12.18;;;;;;;20.29;68.45;98892.41;5049309;28;20056;-66
2021/05/29 09:08:04;;;;;;;23.73;14.95;;;;;;;20.34;68.38;98910.63;5066298;28;20087;-65
2021/05/29 09:10:30;;;;;;;26.02;14.82;;;;;;;20.16;69.30;98910.25;5066172;28;20091;-65
2021/05/29 09:13:06;;;;;;;23.85;18.30;;;;;;;19.78;69.63;98903.34;5065911;28;20111;-67
2021/05/29 09:15:39;;;;;;;18.88;13.48;;;;;;;19.80;70.08;98898.78;5066269;28;20036;-67
2021/05/29 09:18:06;;;;;;;16.48;12.60;;;;;;;19.68;70.02;98908.50;5067530;28;20068;-68
2021/05/29 09:20:31;;;;;;;21.38;12.93;;;;;;;19.76;69.93;98910.59;5064930;28;20393;-65
2021/05/29 09:22:59;;;;;;;25.25;11.90;;;;;;;19.83;69.44;98898.56;5067891;28;20044;-65
2021/05/29 09:25:26;;;;;;;17.55;11.68;;;;;;;19.71;69.95;98904.78;5065520;28;20509;-66
2021/05/29 09:28:04;;;;;;;21.13;11.80;;;;;;;19.83;69.59;98909.16;5066157;28;20182;-64
2021/05/29 09:30:41;;;;;;;25.00;10.93;;;;;;;19.86;69.56;98902.78;5065623;28;20528;-65
2021/05/29 09:33:18;;;;;;;13.02;11.15;;;;;;;19.96;69.29;98896.66;5049844;28;20037;-64
2021/05/29 09:36:02;;;;;;;14.77;10.70;;;;;;;20.32;67.79;98902.78;5067836;28;20045;-66
2021/05/29 09:38:34;;;;;;;12.63;9.98;;;;;;;20.59;66.69;98900.66;5066770;28;20048;-69
2021/05/29 09:41:00;;;;;;;15.85;10.43;;;;;;;20.90;65.75;98869.00;5066243;28;20152;-67
2021/05/29 09:43:26;;;;;;;15.25;9.23;;;;;;;21.29;64.25;98888.03;5066472;28;20135;-64
2021/05/29 09:46:04;;;;;;;15.98;8.15;;;;;;;21.60;62.89;98884.56;5067146;28;20060;-67
2021/05/29 09:48:31;;;;;;;13.40;8.52;;;;;;;21.16;63.69;98866.88;5070061;28;20037;-68
2021/05/29 09:51:11;;;;;;;10.60;8.27;;;;;;;21.41;63.60;98881.69;5072495;28;20074;-66
2021/05/29 09:53:40;;;;;;;14.75;8.55;;;;;;;21.54;62.71;98869.06;5070765;28;20090;-66
2021/05/29 09:56:07;;;;;;;13.18;8.52;;;;;;;21.53;62.23;98870.03;5052412;28;20509;-67
2021/05/29 09:58:51;;;;;;;9.95;7.55;;;;;;;21.27;63.86;98890.81;5069740;28;20385;-67
2021/05/29 10:01:50;;;;;;;10.77;7.93;;;;;;;21.10;63.95;98883.34;5069634;28;20044;-67
2021/05/29 10:04:36;;;;;;;12.20;7.40;;;;;;;21.03;64.47;98883.00;5071304;28;20036;-66
2021/05/29 10:07:04;;;;;;;12.55;7.38;;;;;;;20.55;64.70;98885.91;5072604;28;20048;-67
2021/05/29 10:09:30;;;;;;;13.75;8.05;;;;;;;20.27;65.52;98884.53;5069410;28;20512;-68
2021/05/29 10:11:57;;;;;;;13.38;7.68;;;;;;;20.11;66.36;98868.13;5052236;28;20056;-66
2021/05/29 10:14:23;;;;;;;16.02;8.73;;;;;;;20.41;65.42;98878.19;5067066;28;20600;-66
2021/05/29 10:16:49;;;;;;;14.43;8.20;;;;;;;20.44;65.81;98875.28;5068553;28;20143;-67
2021/05/29 10:19:20;;;;;;;13.02;7.95;;;;;;;20.47;64.87;98852.94;5050358;28;20421;-67
2021/05/29 10:21:46;;;;;;;21.38;9.10;;;;;;;20.57;64.89;98870.69;5067267;28;20036;-66
2021/05/29 10:24:12;;;;;;;8.88;7.50;;;;;;;20.73;63.74;98874.78;5068584;28;20123;-67
2021/05/29 10:26:38;;;;;;;15.50;7.70;;;;;;;20.73;63.78;98856.19;5069254;28;20179;-67
2021/05/29 10:29:05;;;;;;;13.68;7.82;;;;;;;20.75;63.57;98856.91;5068871;28;20135;-67
2021/05/29 10:31:36;;;;;;;12.02;6.97;;;;;;;20.66;63.68;98842.56;5068469;28;20072;-67
2021/05/29 10:34:06;;;;;;;9.23;6.95;;;;;;;20.77;63.75;98857.63;5069729;28;20054;-66
2021/05/29 10:36:57;;;;;;;10.35;7.28;;;;;;;20.39;63.94;98847.38;5050839;28;20056;-66
2021/05/29 10:39:41;;;;;;;9.40;6.85;;;;;;;20.38;64.24;98859.81;5084212;28;20045;-68
2021/05/29 10:42:07;;;;;;;7.93;5.97;;;;;;;20.11;64.04;98824.78;5066626;28;20091;-67
2021/05/29 10:44:36;;;;;;;7.78;5.05;;;;;;;19.74;64.24;98854.13;5068649;28;20052;-65
2021/05/29 10:47:10;;;;;;;14.93;5.85;;;;;;;19.80;64.44;98861.63;5069076;28;20047;-67
2021/05/29 10:49:48;;;;;;;9.60;5.13;;;;;;;19.86;63.85;98866.47;5067977;28;20040;-67
2021/05/29 10:52:33;;;;;;;12.48;5.05;;;;;;;20.11;63.65;98861.97;5070144;28;20140;-67
2021/05/29 10:55:11;;;;;;;12.85;5.43;;;;;;;20.35;62.49;98844.09;5068741;28;20137;-67
2021/05/29 10:57:57;;;;;;;9.13;4.60;;;;;;;20.20;62.66;98835.53;5069153;28;20086;-67
2021/05/29 11:00:43;;;;;;;15.13;5.80;;;;;;;20.34;62.64;98841.56;5067611;28;20460;-67
2021/05/29 11:03:21;;;;;;;8.02;4.90;;;;;;;20.34;62.54;98852.19;5059655;28;20122;-68
2021/05/29 11:05:48;;;;;;;6.93;4.88;;;;;;;20.16;62.89;98865.94;5069986;28;20535;-67
2021/05/29 11:08:44;;;;;;;9.70;5.38;;;;;;;20.04;63.31;98858.06;5052290;28;20036;-67
2021/05/29 11:14:11;;;;;;;9.00;5.13;;;;;;;19.86;64.24;98858.50;5068611;28;20056;-67
2021/05/29 11:16:46;;;;;;;5.63;4.90;;;;;;;19.83;64.17;98868.50;5066973;28;20501;-67
2021/05/29 11:19:13;;;;;;;10.88;5.63;;;;;;;19.73;64.59;98863.06;5068618;28;20036;-67
2021/05/29 11:22:00;;;;;;;10.00;4.80;;;;;;;19.62;64.34;98855.91;5066509;28;20127;-67
2021/05/29 11:24:28;;;;;;;5.30;4.80;;;;;;;19.57;64.49;98858.06;5065204;28;20095;-67
2021/05/29 11:26:54;;;;;;;7.32;4.65;;;;;;;19.09;66.16;98874.91;5066141;28;20066;-68
2021/05/29 11:29:20;;;;;;;6.53;4.72;;;;;;;18.95;66.60;98867.94;5067176;28;20509;-67
2021/05/29 11:31:48;;;;;;;8.43;5.05;;;;;;;19.00;66.57;98879.06;5065777;28;20040;-65
2021/05/29 11:34:14;;;;;;;8.65;4.70;;;;;;;18.79;67.04;98868.22;5067195;28;20083;-67
2021/05/29 11:36:42;;;;;;;5.70;5.07;;;;;;;18.72;67.76;98867.81;5066918;28;20108;-68